Pagrindinis puslapis
METAR-TAF:

METAR-TAF

Oro uostai :

Poris, Suomija

platuma: 61-28N, ilguma: 021-48E, Aukštis: 13 m

Dabartinis oras

Ataskaita buvo paskelbta 36 minutes, ne 15:50 UTC
Vėjas 8 kt iš Šiaurės Vakarų
Temperatūra 1°C
Drėgmė 100%
Slėgis 981 hPa
Matomumas 10 km arba daugiau
Išsisklaidę debesys ne aukštis 500 ft
Su prošvaistėmis ne aukštis 3700 ft
Apsiniaukę ne aukštis 4600 ft
sniegas

METAR: EFPO 071550Z AUTO 32008KT 9999 -SN SCT005 BKN037 OVC046 01/01 Q0981

Laikas: 18:26 (16:26 UTC)

Prognozė

Ataskaita buvo paskelbta 19 valandos ir 57 minutes, ne 20:29 UTC
Prognozė galioja nuo 06 metu 21 UTC su 06 metu 23 UTC
Vėjas 5 kt iš Vakarų/Pietvakarių
Matomumas 10 km arba daugiau
Apsiniaukę ne aukštis 500 ft
Laikinai
nuo 06 metu 21 UTC su 06 metu 23 UTC
Matomumas: 4000 m
Su prošvaistėmis ne aukštis 400 ft
rūkana

TAF: EFPO 062029Z 0621/0623 24005KT 9999 OVC005 TEMPO 0621/0623 4000 BR BKN004

Orai ataskaitas ir orų prognozės (METAR, TAF).

turimą stotys yra geltonos ir raudonos taškus žemėlapyje.

Perkelti pele per norėdami pamatyti stoties vardą.

Tada spustelėkite, norėdami matyti oro stebėjimo ir prognozės.

Norėdami pakeisti žemėlapį: spustelėkite ant žalios mygtukų su juodo kryžiaus žemyn,; žalią mygtuką su brūkšneliu, jei norite nutolinti; arba žalių rodyklių gretimoms žemėlapius.


METAR-TAF: